createdAt,value
2018-08-12T00:02:10.581Z,63.81
2018-08-12T00:04:44.456Z,64.10
2018-08-12T00:07:18.057Z,63.82
2018-08-12T00:09:51.834Z,64.15
2018-08-12T00:12:25.848Z,64.52
2018-08-12T00:14:59.585Z,64.31
2018-08-12T00:17:33.176Z,64.37
2018-08-12T00:20:08.531Z,64.21
2018-08-12T00:22:42.569Z,64.14
2018-08-12T00:25:17.846Z,63.88
2018-08-12T00:27:51.504Z,64.12
2018-08-12T00:30:25.102Z,64.12
2018-08-12T00:32:59.002Z,64.06
2018-08-12T00:35:32.799Z,63.88
2018-08-12T00:38:06.947Z,63.93
2018-08-12T00:40:40.656Z,64.15
2018-08-12T00:43:15.322Z,63.84
2018-08-12T00:45:48.910Z,64.00
2018-08-12T00:48:22.843Z,64.03
2018-08-12T00:50:56.522Z,63.75
2018-08-12T00:53:30.260Z,63.89
2018-08-12T00:56:03.782Z,64.12
2018-08-12T00:58:37.419Z,64.15
2018-08-12T01:01:11.209Z,63.93
2018-08-12T01:03:44.821Z,64.20
2018-08-12T01:06:18.631Z,64.35
2018-08-12T01:08:52.230Z,64.26
2018-08-12T01:11:25.863Z,64.52
2018-08-12T01:13:59.627Z,64.78
2018-08-12T01:16:33.278Z,64.97
2018-08-12T01:19:07.141Z,64.94
2018-08-12T01:21:40.554Z,64.82
2018-08-12T01:24:14.024Z,64.86
2018-08-12T01:26:47.472Z,64.70
2018-08-12T01:29:20.973Z,64.50
2018-08-12T01:31:54.434Z,64.99
2018-08-12T01:34:27.905Z,64.96
2018-08-12T01:37:01.356Z,64.70
2018-08-12T01:39:34.831Z,64.87
2018-08-12T01:42:08.268Z,64.79
2018-08-12T01:44:41.720Z,65.04
2018-08-12T01:47:15.136Z,65.11
2018-08-12T01:49:48.563Z,65.74
2018-08-12T01:52:21.984Z,65.48
2018-08-12T01:54:55.459Z,65.45
2018-08-12T01:57:28.855Z,65.50
2018-08-12T02:00:02.417Z,65.77
2018-08-12T02:02:35.843Z,65.64
2018-08-12T02:05:09.264Z,65.51
2018-08-12T02:07:42.795Z,65.45
2018-08-12T02:10:16.250Z,65.31
2018-08-12T02:12:49.655Z,65.29
2018-08-12T02:15:23.087Z,65.33
2018-08-12T02:17:56.480Z,65.34
2018-08-12T02:20:29.913Z,65.57
2018-08-12T02:23:03.319Z,65.26
2018-08-12T02:25:36.784Z,65.55
2018-08-12T02:28:10.178Z,65.26
2018-08-12T02:30:43.608Z,65.41
2018-08-12T02:33:17.079Z,65.35
2018-08-12T02:35:50.503Z,65.27
2018-08-12T02:38:23.955Z,65.49
2018-08-12T02:40:57.374Z,65.36
2018-08-12T02:43:30.805Z,65.22
2018-08-12T02:46:04.248Z,65.45
2018-08-12T02:48:37.648Z,64.83
2018-08-12T02:51:11.050Z,65.03
2018-08-12T02:53:44.548Z,64.39
2018-08-12T02:56:17.995Z,65.31
2018-08-12T02:58:51.409Z,65.29
2018-08-12T03:01:24.841Z,65.28
2018-08-12T03:03:58.251Z,64.73
2018-08-12T03:06:31.627Z,65.12
2018-08-12T03:09:08.472Z,65.09
2018-08-12T03:11:42.299Z,64.99
2018-08-12T03:14:15.733Z,65.00
2018-08-12T03:16:49.154Z,65.00
2018-08-12T03:19:22.649Z,65.27
2018-08-12T03:21:56.051Z,65.23
2018-08-12T03:24:29.503Z,65.26
2018-08-12T03:27:02.914Z,65.30
2018-08-12T03:29:36.374Z,65.46
2018-08-12T03:32:09.890Z,65.25
2018-08-12T03:34:43.296Z,65.49
2018-08-12T03:37:16.691Z,65.46
2018-08-12T03:39:51.055Z,65.48
2018-08-12T03:42:24.450Z,65.35
2018-08-12T03:44:57.871Z,65.39
2018-08-12T03:47:31.275Z,65.77
2018-08-12T03:50:05.392Z,65.53
2018-08-12T03:52:39.135Z,65.46
2018-08-12T03:55:13.372Z,65.26
2018-08-12T03:57:46.820Z,65.32
2018-08-12T04:00:20.303Z,65.23
2018-08-12T04:02:54.370Z,65.43
2018-08-12T04:05:29.103Z,65.35
2018-08-12T04:08:03.543Z,65.31
2018-08-12T04:10:37.538Z,65.21
2018-08-12T04:13:11.631Z,65.47
2018-08-12T04:15:45.561Z,65.54
2018-08-12T04:18:20.963Z,65.48
2018-08-12T04:20:55.014Z,65.76
2018-08-12T04:23:28.990Z,65.48
2018-08-12T04:26:02.914Z,65.80
2018-08-12T04:28:37.004Z,65.83
2018-08-12T04:31:11.069Z,65.95
2018-08-12T04:33:45.014Z,65.75
2018-08-12T04:36:18.991Z,65.73
2018-08-12T04:38:53.048Z,65.73
2018-08-12T04:41:27.024Z,65.87
2018-08-12T04:44:00.951Z,65.83
2018-08-12T04:46:35.548Z,65.72
2018-08-12T04:49:10.481Z,65.84
2018-08-12T04:51:44.504Z,65.63
2018-08-12T04:54:18.457Z,65.78
2018-08-12T04:56:52.529Z,65.83
2018-08-12T04:59:26.488Z,65.64
2018-08-12T05:02:00.426Z,65.91
2018-08-12T05:04:34.415Z,65.66
2018-08-12T05:07:08.480Z,65.58
2018-08-12T05:09:42.498Z,65.39
2018-08-12T05:12:16.478Z,65.57
2018-08-12T05:14:50.487Z,65.48
2018-08-12T05:17:24.436Z,65.04
2018-08-12T05:19:58.526Z,64.78
2018-08-12T05:22:32.494Z,64.96
2018-08-12T05:25:06.541Z,65.05
2018-08-12T05:27:40.483Z,65.27
2018-08-12T05:30:14.541Z,65.47
2018-08-12T05:32:48.474Z,65.32
2018-08-12T05:35:22.428Z,65.04
2018-08-12T05:37:56.463Z,65.02
2018-08-12T05:40:30.471Z,64.89
2018-08-12T05:43:04.441Z,64.98
2018-08-12T05:45:38.460Z,64.80
2018-08-12T05:48:12.436Z,64.76
2018-08-12T05:50:46.276Z,64.19
2018-08-12T05:53:20.306Z,63.80
2018-08-12T05:55:54.150Z,63.49
2018-08-12T05:58:28.159Z,63.54
2018-08-12T06:01:02.197Z,63.80
2018-08-12T06:03:36.114Z,63.44
2018-08-12T06:06:10.184Z,62.85
2018-08-12T06:08:43.592Z,62.75
2018-08-12T06:11:17.023Z,62.12
2018-08-12T06:13:50.432Z,62.19
2018-08-12T06:16:23.851Z,62.46
2018-08-12T06:18:57.292Z,61.71
2018-08-12T06:21:30.713Z,61.57
2018-08-12T06:24:04.190Z,60.54
2018-08-12T06:26:37.637Z,60.34
2018-08-12T06:29:11.037Z,59.71
2018-08-12T06:31:44.477Z,59.29
2018-08-12T06:34:17.936Z,59.54
2018-08-12T06:36:51.332Z,58.67
2018-08-12T06:39:24.744Z,58.85
2018-08-12T06:41:58.152Z,58.66
2018-08-12T06:44:31.549Z,58.41
2018-08-12T06:47:05.034Z,57.11
2018-08-12T06:49:38.448Z,57.27
2018-08-12T06:52:11.890Z,56.82
2018-08-12T06:54:45.280Z,56.89
2018-08-12T06:57:18.668Z,56.83
2018-08-12T06:59:52.066Z,56.54
2018-08-12T07:02:25.578Z,56.19
2018-08-12T07:04:59.018Z,54.98
2018-08-12T07:07:32.436Z,55.08
2018-08-12T07:10:07.922Z,54.72
2018-08-12T07:12:41.751Z,54.23
2018-08-12T07:15:17.619Z,53.53
2018-08-12T07:17:51.060Z,53.20
2018-08-12T07:20:24.470Z,53.27
2018-08-12T07:22:57.898Z,52.46
2018-08-12T07:25:31.362Z,51.55
2018-08-12T07:28:04.829Z,51.37
2018-08-12T07:30:38.279Z,51.70
2018-08-12T07:33:11.686Z,51.42
2018-08-12T07:35:45.083Z,51.12
2018-08-12T07:38:18.560Z,50.61
2018-08-12T07:40:51.969Z,50.15
2018-08-12T07:43:25.404Z,49.73
2018-08-12T07:45:58.820Z,49.10
2018-08-12T07:48:32.399Z,48.63
2018-08-12T07:51:05.801Z,46.75
2018-08-12T07:53:39.275Z,48.33
2018-08-12T07:56:12.765Z,48.51
2018-08-12T08:01:18.685Z,43.59
2018-08-12T08:03:52.548Z,44.22
2018-08-12T08:06:26.070Z,44.70
2018-08-12T08:08:59.622Z,43.65
2018-08-12T08:11:33.074Z,45.54
2018-08-12T08:14:06.718Z,44.85
2018-08-12T08:16:40.215Z,41.00
2018-08-12T08:19:13.687Z,41.94
2018-08-12T08:21:47.121Z,42.06
2018-08-12T08:24:20.708Z,41.15
2018-08-12T08:26:54.117Z,41.61
2018-08-12T08:29:27.632Z,40.84
2018-08-12T08:32:02.074Z,40.56
2018-08-12T08:34:36.474Z,40.24
2018-08-12T08:37:10.037Z,38.68
2018-08-12T08:39:44.297Z,37.04
2018-08-12T08:42:17.953Z,37.00
2018-08-12T08:44:51.384Z,36.20
2018-08-12T08:47:32.992Z,36.60
2018-08-12T08:50:06.573Z,37.86
2018-08-12T08:52:40.007Z,36.65
2018-08-12T08:55:14.375Z,39.44
2018-08-12T08:57:48.438Z,37.08
2018-08-12T09:00:22.290Z,35.92
2018-08-12T09:02:55.819Z,35.13
2018-08-12T09:05:29.295Z,34.47
2018-08-12T09:08:02.820Z,33.47
2018-08-12T09:10:36.490Z,34.53
2018-08-12T09:13:09.975Z,33.76
2018-08-12T09:15:43.355Z,33.89
2018-08-12T09:18:16.905Z,35.56
2018-08-12T09:20:50.259Z,34.63
2018-08-12T09:23:23.765Z,35.03
2018-08-12T09:25:57.278Z,33.60
2018-08-12T09:28:30.894Z,34.16
2018-08-12T09:31:04.326Z,34.05
2018-08-12T09:33:37.949Z,33.62
2018-08-12T09:36:11.663Z,33.43
2018-08-12T09:38:45.495Z,32.90
2018-08-12T09:41:18.912Z,34.19
2018-08-12T09:43:52.439Z,35.47
2018-08-12T09:46:25.865Z,34.62
2018-08-12T09:48:59.340Z,33.74
2018-08-12T09:51:33.058Z,32.61
2018-08-12T09:54:06.512Z,34.96
2018-08-12T09:56:39.965Z,34.54
2018-08-12T09:59:13.422Z,34.37
2018-08-12T10:01:46.963Z,33.77
2018-08-12T10:04:21.022Z,33.05
2018-08-12T10:06:55.093Z,34.06
2018-08-12T10:09:29.264Z,34.66
2018-08-12T10:12:04.802Z,34.40
2018-08-12T10:14:38.802Z,34.49
2018-08-12T10:17:12.708Z,33.41
2018-08-12T10:19:46.536Z,32.90
2018-08-12T10:22:20.802Z,32.60
2018-08-12T10:24:55.040Z,31.85
2018-08-12T10:27:29.233Z,31.95
2018-08-12T10:30:03.567Z,32.57
2018-08-12T10:32:37.612Z,31.75
2018-08-12T10:35:14.614Z,32.97
2018-08-12T10:37:48.572Z,31.73
2018-08-12T10:40:22.297Z,33.97
2018-08-12T10:42:56.968Z,32.47
2018-08-12T10:45:30.727Z,33.35
2018-08-12T10:48:04.446Z,33.38
2018-08-12T10:50:37.976Z,33.65
2018-08-12T10:53:12.544Z,34.81
2018-08-12T10:55:46.431Z,33.58
2018-08-12T10:58:20.248Z,33.32
2018-08-12T11:00:56.057Z,34.18
2018-08-12T11:03:29.914Z,33.59
2018-08-12T11:06:03.932Z,33.74
2018-08-12T11:08:37.936Z,32.42
2018-08-12T11:11:11.926Z,32.96
2018-08-12T11:13:45.922Z,36.40
2018-08-12T11:16:19.890Z,32.49
2018-08-12T11:18:53.936Z,33.42
2018-08-12T11:21:27.923Z,34.46
2018-08-12T11:24:01.908Z,34.76
2018-08-12T11:26:36.410Z,34.39
2018-08-12T11:29:10.366Z,34.85
2018-08-12T11:31:44.338Z,33.54
2018-08-12T11:34:18.300Z,34.58
2018-08-12T11:36:51.984Z,32.40
2018-08-12T11:39:26.489Z,34.39
2018-08-12T11:42:00.463Z,32.37
2018-08-12T11:44:34.388Z,32.13
2018-08-12T11:47:09.049Z,32.73
2018-08-12T11:49:42.915Z,32.09
2018-08-12T11:52:16.420Z,30.27
2018-08-12T11:54:49.889Z,30.48
2018-08-12T11:57:23.328Z,33.87
2018-08-12T11:59:56.797Z,31.56
2018-08-12T12:02:30.265Z,30.43
2018-08-12T12:05:03.847Z,31.21
2018-08-12T12:07:38.136Z,30.47
2018-08-12T12:10:14.336Z,30.29
2018-08-12T12:12:49.366Z,33.82
2018-08-12T12:15:22.863Z,34.92
2018-08-12T12:17:56.332Z,32.03
2018-08-12T12:20:29.816Z,33.22
2018-08-12T12:23:03.236Z,35.35
2018-08-12T12:25:36.693Z,33.54
2018-08-12T12:28:10.262Z,32.06
2018-08-12T12:30:43.739Z,32.72
2018-08-12T12:33:17.720Z,35.14
2018-08-12T12:35:51.740Z,33.58
2018-08-12T12:38:25.946Z,33.47
2018-08-12T12:40:59.883Z,33.48
2018-08-12T12:43:33.859Z,35.46
2018-08-12T12:46:07.621Z,36.08
2018-08-12T12:48:41.573Z,33.54
2018-08-12T12:51:16.597Z,32.84
2018-08-12T12:53:50.648Z,32.84
2018-08-12T12:56:25.069Z,33.51
2018-08-12T12:58:59.000Z,34.71
2018-08-12T13:01:32.996Z,34.35
2018-08-12T13:04:06.890Z,33.30
2018-08-12T13:06:40.468Z,33.85
2018-08-12T13:09:14.394Z,32.61
2018-08-12T13:11:49.387Z,32.81
2018-08-12T13:14:23.130Z,35.95
2018-08-12T13:16:56.947Z,33.39
2018-08-12T13:19:31.056Z,32.91
2018-08-12T13:22:05.036Z,33.36
2018-08-12T13:24:39.544Z,32.01
2018-08-12T13:27:13.182Z,32.37
2018-08-12T13:29:47.034Z,33.88
2018-08-12T13:32:21.079Z,32.84
2018-08-12T13:34:55.023Z,33.21
2018-08-12T13:37:32.283Z,34.89
2018-08-12T13:40:11.526Z,33.42
2018-08-12T13:42:46.463Z,32.55
2018-08-12T13:45:19.883Z,34.78
2018-08-12T13:47:53.303Z,34.28
2018-08-12T13:50:26.747Z,34.27
2018-08-12T13:53:00.189Z,34.17
2018-08-12T13:55:35.920Z,33.91
2018-08-12T13:58:10.007Z,33.09
2018-08-12T14:00:43.439Z,34.32
2018-08-12T14:03:16.850Z,34.77
2018-08-12T14:05:50.278Z,33.81
2018-08-12T14:08:23.795Z,34.31
2018-08-12T14:10:57.212Z,31.62
2018-08-12T14:13:30.720Z,33.17
2018-08-12T14:16:04.274Z,31.15
2018-08-12T14:18:37.793Z,34.09
2018-08-12T14:21:11.333Z,33.00
2018-08-12T14:23:44.736Z,32.94
2018-08-12T14:26:19.145Z,32.61
2018-08-12T14:28:52.564Z,33.53
2018-08-12T14:31:26.062Z,33.30
2018-08-12T14:33:59.507Z,33.77
2018-08-12T14:36:32.954Z,35.32
2018-08-12T14:39:08.457Z,35.42
2018-08-12T14:41:41.872Z,33.60
2018-08-12T14:44:15.265Z,33.36
2018-08-12T14:46:48.681Z,34.95
2018-08-12T14:49:22.067Z,34.78
2018-08-12T14:51:55.504Z,34.89
2018-08-12T14:54:28.903Z,34.83
2018-08-12T14:57:02.352Z,35.01
2018-08-12T14:59:35.781Z,33.18
2018-08-12T15:02:09.262Z,33.29
2018-08-12T15:04:42.713Z,34.39
2018-08-12T15:07:16.199Z,35.01
2018-08-12T15:09:49.526Z,33.41
2018-08-12T15:12:23.730Z,34.25
2018-08-12T15:14:57.146Z,34.34
2018-08-12T15:17:30.756Z,35.03
2018-08-12T15:20:04.809Z,34.83
2018-08-12T15:22:38.471Z,34.85
2018-08-12T15:25:15.699Z,34.41
2018-08-12T15:27:49.152Z,34.62
2018-08-12T15:30:22.542Z,35.46
2018-08-12T15:32:55.960Z,34.91
2018-08-12T15:35:29.581Z,32.91
2018-08-12T15:38:09.429Z,34.40
2018-08-12T15:40:43.088Z,33.54
2018-08-12T15:43:16.606Z,33.98
2018-08-12T15:45:50.122Z,33.63
2018-08-12T15:48:23.652Z,32.93
2018-08-12T15:50:57.134Z,34.19
2018-08-12T15:53:30.629Z,33.04
2018-08-12T15:56:04.454Z,33.79
2018-08-12T15:58:38.095Z,35.37
2018-08-12T16:01:11.604Z,34.56
2018-08-12T16:03:45.212Z,33.19
2018-08-12T16:06:18.750Z,34.24
2018-08-12T16:08:52.354Z,33.53
2018-08-12T16:11:26.093Z,34.07
2018-08-12T16:14:02.073Z,34.65
2018-08-12T16:16:36.148Z,34.76
2018-08-12T16:19:09.799Z,33.85
2018-08-12T16:21:43.568Z,35.17
2018-08-12T16:24:17.111Z,35.06
2018-08-12T16:26:50.670Z,35.78
2018-08-12T16:29:30.978Z,35.55
2018-08-12T16:32:12.277Z,35.57
2018-08-12T16:34:52.245Z,36.51
2018-08-12T16:37:27.821Z,35.65
2018-08-12T16:40:01.423Z,36.24
2018-08-12T16:42:38.130Z,37.52
2018-08-12T16:45:14.310Z,36.13
2018-08-12T16:47:48.396Z,37.46
2018-08-12T16:50:21.885Z,36.89
2018-08-12T16:52:55.385Z,36.37
2018-08-12T16:55:29.028Z,37.50
2018-08-12T16:58:02.620Z,36.40
2018-08-12T17:00:36.209Z,37.26
2018-08-12T17:03:09.759Z,39.18
2018-08-12T17:05:43.290Z,38.87
2018-08-12T17:08:16.907Z,38.09
2018-08-12T17:10:50.391Z,39.32
2018-08-12T17:13:23.933Z,39.12
2018-08-12T17:15:57.471Z,38.61
2018-08-12T17:18:31.714Z,39.56
2018-08-12T17:21:05.679Z,39.57
2018-08-12T17:23:39.826Z,39.24
2018-08-12T17:26:13.848Z,39.79
2018-08-12T17:28:47.578Z,40.46
2018-08-12T17:31:21.683Z,40.43
2018-08-12T17:33:55.587Z,40.71
2018-08-12T17:36:29.731Z,40.13
2018-08-12T17:39:04.047Z,40.68
2018-08-12T17:41:38.021Z,41.00
2018-08-12T17:44:12.668Z,40.75
2018-08-12T17:46:47.504Z,41.18
2018-08-12T17:49:21.663Z,41.57
2018-08-12T17:51:55.576Z,42.29
2018-08-12T17:54:29.519Z,42.35
2018-08-12T17:57:04.985Z,42.93
2018-08-12T17:59:39.088Z,42.50
2018-08-12T18:02:15.012Z,41.85
2018-08-12T18:04:50.028Z,42.01
2018-08-12T18:07:24.570Z,41.45
2018-08-12T18:09:59.191Z,42.07
2018-08-12T18:12:33.544Z,42.18
2018-08-12T18:15:08.950Z,43.35
2018-08-12T18:17:43.439Z,44.36
2018-08-12T18:20:17.609Z,44.14
2018-08-12T18:22:51.579Z,43.04
2018-08-12T18:25:26.039Z,44.15
2018-08-12T18:28:00.506Z,42.81
2018-08-12T18:30:34.371Z,41.96
2018-08-12T18:33:08.427Z,42.91
2018-08-12T18:35:42.471Z,42.96
2018-08-12T18:38:17.090Z,43.45
2018-08-12T18:40:51.434Z,43.13
2018-08-12T18:43:25.510Z,43.10
2018-08-12T18:46:00.011Z,43.62
2018-08-12T18:48:33.960Z,43.27
2018-08-12T18:51:08.546Z,44.33
2018-08-12T18:53:42.571Z,44.64
2018-08-12T18:56:16.417Z,45.04
2018-08-12T18:58:50.488Z,45.82
2018-08-12T19:01:25.065Z,45.65
2018-08-12T19:03:59.039Z,45.92
2018-08-12T19:06:33.050Z,44.79
2018-08-12T19:09:09.405Z,44.63
2018-08-12T19:11:43.596Z,44.81
2018-08-12T19:14:17.558Z,45.40
2018-08-12T19:16:51.536Z,45.51
2018-08-12T19:19:25.535Z,46.37
2018-08-12T19:21:59.598Z,46.55
2018-08-12T19:24:34.079Z,46.83
2018-08-12T19:27:08.121Z,47.18
2018-08-12T19:29:41.925Z,47.14
2018-08-12T19:32:16.221Z,46.41
2018-08-12T19:34:51.286Z,47.17
2018-08-12T19:37:25.492Z,47.33
2018-08-12T19:39:59.451Z,47.02
2018-08-12T19:42:32.852Z,46.49
2018-08-12T19:45:07.504Z,47.39
2018-08-12T19:47:40.885Z,47.70
2018-08-12T19:50:14.270Z,48.63
2018-08-12T19:52:47.729Z,48.64
2018-08-12T19:55:21.109Z,49.10
2018-08-12T19:57:54.462Z,48.73
2018-08-12T20:00:27.924Z,49.01
2018-08-12T20:03:01.329Z,49.49
2018-08-12T20:05:34.715Z,50.09
2018-08-12T20:08:08.112Z,50.45
2018-08-12T20:10:41.495Z,50.70
2018-08-12T20:13:14.857Z,52.30
2018-08-12T20:15:48.349Z,52.19
2018-08-12T20:18:21.699Z,51.82
2018-08-12T20:20:55.117Z,52.29
2018-08-12T20:23:28.467Z,52.82
2018-08-12T20:26:01.959Z,52.42
2018-08-12T20:28:35.334Z,53.93
2018-08-12T20:31:08.727Z,52.88
2018-08-12T20:33:42.092Z,53.17
2018-08-12T20:36:15.503Z,53.79
2018-08-12T20:38:48.889Z,53.72
2018-08-12T20:41:22.299Z,53.88
2018-08-12T20:43:55.883Z,54.72
2018-08-12T20:46:29.327Z,54.09
2018-08-12T20:49:02.734Z,53.81
2018-08-12T20:51:36.151Z,54.00
2018-08-12T20:54:09.525Z,55.37
2018-08-12T20:56:42.924Z,56.33
2018-08-12T20:59:16.292Z,55.96
2018-08-12T21:01:49.762Z,56.96
2018-08-12T21:04:23.162Z,57.39
2018-08-12T21:06:56.566Z,56.17
2018-08-12T21:09:29.947Z,55.91
2018-08-12T21:12:03.621Z,56.03
2018-08-12T21:14:36.814Z,56.16
2018-08-12T21:17:10.214Z,56.04
2018-08-12T21:19:43.600Z,56.41
2018-08-12T21:22:17.043Z,56.72
2018-08-12T21:24:50.395Z,56.46
2018-08-12T21:27:23.787Z,56.46
2018-08-12T21:29:57.134Z,56.99
2018-08-12T21:32:30.552Z,56.84
2018-08-12T21:35:03.970Z,56.66
2018-08-12T21:37:37.357Z,56.74
2018-08-12T21:40:10.736Z,57.49
2018-08-12T21:42:44.111Z,56.98
2018-08-12T21:45:17.573Z,57.07
2018-08-12T21:47:50.946Z,57.41
2018-08-12T21:50:24.335Z,57.07
2018-08-12T21:52:57.755Z,57.69
2018-08-12T21:55:31.183Z,57.63
2018-08-12T21:58:04.608Z,57.23
2018-08-12T22:00:38.039Z,57.88
2018-08-12T22:03:11.479Z,57.81
2018-08-12T22:05:45.157Z,57.66
2018-08-12T22:08:18.548Z,57.70
2018-08-12T22:10:51.928Z,57.33
2018-08-12T22:13:25.364Z,57.75
2018-08-12T22:15:58.771Z,57.77
2018-08-12T22:18:32.248Z,57.32
2018-08-12T22:21:05.659Z,58.06
2018-08-12T22:23:39.083Z,57.68
2018-08-12T22:26:12.432Z,57.68
2018-08-12T22:28:45.823Z,57.78
2018-08-12T22:31:19.196Z,57.77
2018-08-12T22:33:52.803Z,57.69
2018-08-12T22:36:26.184Z,57.83
2018-08-12T22:38:59.594Z,57.72
2018-08-12T22:41:32.944Z,58.26
2018-08-12T22:44:06.418Z,57.75
2018-08-12T22:46:39.805Z,58.27
2018-08-12T22:49:13.182Z,58.27
2018-08-12T22:51:46.586Z,57.75
2018-08-12T22:54:20.079Z,58.54
2018-08-12T22:56:53.497Z,59.20
2018-08-12T22:59:26.908Z,58.91
2018-08-12T23:02:00.355Z,58.95
2018-08-12T23:04:33.746Z,59.39
2018-08-12T23:07:07.256Z,59.42
2018-08-12T23:09:40.719Z,59.10
2018-08-12T23:12:14.157Z,58.96
2018-08-12T23:14:47.547Z,58.55
2018-08-12T23:17:20.963Z,59.06
2018-08-12T23:19:54.357Z,58.98
2018-08-12T23:22:27.762Z,59.04
2018-08-12T23:25:01.150Z,59.27
2018-08-12T23:27:34.591Z,59.01
2018-08-12T23:30:08.734Z,59.57
2018-08-12T23:32:42.116Z,59.42
2018-08-12T23:35:15.479Z,59.25
2018-08-12T23:37:48.868Z,59.30
2018-08-12T23:40:22.274Z,59.40
2018-08-12T23:42:55.670Z,59.29
2018-08-12T23:45:29.086Z,59.43
2018-08-12T23:48:02.562Z,59.49
2018-08-12T23:50:35.943Z,59.54
2018-08-12T23:53:09.335Z,59.33
2018-08-12T23:55:42.792Z,60.46
2018-08-12T23:58:16.255Z,60.63
